Time;durP1;ratioP1;P1;durP2;ratioP2;P2;SDS_P1;SDS_P2;PMS_P1;PMS_P2;Temp;Humidity;BMP_temperature;BMP_pressure;BME280_temperature;BME280_humidity;BME280_pressure;Samples;Min_cycle;Max_cycle;Signal;HPM_P1;HPM_P2
2022/10/17 00:01:02;;;;;;;9.88;4.65;;;12.50;99.90;;;;;;4988271;28;20055;-87
2022/10/17 00:03:28;;;;;;;9.05;4.45;;;12.50;99.90;;;;;;4988666;28;20042;-88
2022/10/17 00:05:53;;;;;;;10.90;4.78;;;12.50;99.90;;;;;;4987888;28;20088;-87
2022/10/17 00:08:19;;;;;;;10.77;4.45;;;12.60;99.90;;;;;;4988827;28;20046;-88
2022/10/17 00:10:54;;;;;;;7.63;4.35;;;12.50;99.90;;;;;;4989254;28;20057;-87
2022/10/17 00:13:20;;;;;;;10.18;5.13;;;12.50;99.90;;;;;;4985909;28;20493;-87
2022/10/17 00:15:45;;;;;;;8.45;4.50;;;12.50;99.90;;;;;;4989466;28;20050;-87
2022/10/17 00:18:11;;;;;;;7.45;4.82;;;12.50;99.90;;;;;;4980869;28;20090;-86
2022/10/17 00:20:36;;;;;;;12.85;5.63;;;12.50;99.90;;;;;;4969441;28;20054;-87
2022/10/17 00:23:02;;;;;;;9.35;4.93;;;12.50;99.90;;;;;;4969482;28;20141;-87
2022/10/17 00:25:28;;;;;;;5.63;4.13;;;12.60;99.90;;;;;;4963418;28;20543;-87
2022/10/17 00:27:53;;;;;;;9.15;4.72;;;12.60;99.90;;;;;;4972286;28;20112;-87
2022/10/17 00:30:19;;;;;;;10.95;5.20;;;12.60;99.90;;;;;;4989186;28;20056;-87
2022/10/17 00:32:45;;;;;;;8.57;5.65;;;12.60;99.90;;;;;;4984274;28;20413;-87
2022/10/17 00:35:10;;;;;;;7.93;5.20;;;13.10;99.90;;;;;;4987717;28;20104;-87
2022/10/17 00:37:36;;;;;;;8.77;5.40;;;13.00;99.90;;;;;;4988030;28;20129;-87
2022/10/17 00:40:04;;;;;;;12.32;5.70;;;12.80;99.90;;;;;;4978296;28;20039;-88
2022/10/17 00:42:29;;;;;;;6.07;4.88;;;12.70;99.90;;;;;;4961643;28;20504;-87
2022/10/17 00:45:01;;;;;;;9.52;5.28;;;12.70;99.90;;;;;;4988291;28;20127;-88
2022/10/17 00:47:28;;;;;;;8.65;5.13;;;12.90;99.90;;;;;;4972025;28;20053;-89
2022/10/17 00:49:53;;;;;;;9.68;5.47;;;12.70;99.90;;;;;;4987091;28;20092;-88
2022/10/17 00:52:27;;;;;;;7.53;5.28;;;12.80;99.90;;;;;;4969064;28;20046;-88
2022/10/17 00:55:15;;;;;;;8.82;5.60;;;12.80;99.90;;;;;;4978977;28;20596;-88
2022/10/17 00:57:42;;;;;;;8.38;5.20;;;12.90;99.90;;;;;;4971718;28;20038;-88
2022/10/17 01:00:10;;;;;;;6.32;4.57;;;13.70;99.90;;;;;;4988292;28;20094;-87
2022/10/17 01:02:36;;;;;;;8.38;5.10;;;13.00;99.90;;;;;;4971284;28;20509;-88
2022/10/17 01:05:02;;;;;;;8.70;5.50;;;13.00;99.90;;;;;;4985457;28;20046;-88
2022/10/17 01:07:28;;;;;;;6.53;5.10;;;13.00;99.90;;;;;;5001604;28;20422;-88
2022/10/17 01:09:54;;;;;;;9.40;5.40;;;13.00;99.90;;;;;;4969058;28;20449;-87
2022/10/17 01:12:51;;;;;;;8.18;4.90;;;13.00;99.90;;;;;;4953045;28;20047;-87
2022/10/17 01:15:34;;;;;;;8.63;5.53;;;13.00;99.90;;;;;;4967442;28;20111;-88
2022/10/17 01:18:03;;;;;;;6.20;5.60;;;13.00;99.90;;;;;;4968524;28;20060;-87
2022/10/17 01:21:06;;;;;;;7.82;5.45;;;13.10;99.90;;;;;;4952656;28;20097;-88
2022/10/17 01:23:41;;;;;;;9.13;5.70;;;13.10;99.90;;;;;;4978433;28;20496;-88
2022/10/17 01:26:39;;;;;;;6.45;5.80;;;13.10;99.90;;;;;;4974101;28;20486;-88
2022/10/17 01:29:08;;;;;;;8.90;5.80;;;13.00;99.90;;;;;;4961151;28;20102;-88
2022/10/17 01:31:43;;;;;;;6.38;5.70;;;13.00;99.90;;;;;;4984896;28;20054;-89
2022/10/17 01:34:14;;;;;;;7.80;6.32;;;13.00;99.90;;;;;;4952379;28;20043;-88
2022/10/17 01:36:57;;;;;;;8.98;6.35;;;13.00;99.90;;;;;;4968237;28;20133;-87
2022/10/17 01:39:48;;;;;;;8.10;6.45;;;13.00;99.90;;;;;;4970126;28;20401;-88
2022/10/17 01:42:19;;;;;;;7.70;5.97;;;13.00;99.90;;;;;;4987151;28;20057;-87
2022/10/17 01:45:00;;;;;;;12.55;7.00;;;13.00;99.90;;;;;;4986759;28;20074;-87
2022/10/17 01:47:30;;;;;;;10.75;6.15;;;12.90;99.90;;;;;;4987676;28;20085;-88
2022/10/17 01:50:10;;;;;;;8.23;5.97;;;12.90;99.90;;;;;;4971379;28;20349;-88
2022/10/17 01:52:53;;;;;;;15.32;7.35;;;12.90;99.90;;;;;;4987079;28;20514;-88
2022/10/17 01:55:24;;;;;;;6.60;5.80;;;12.90;99.90;;;;;;4986658;28;20512;-87
2022/10/17 01:57:54;;;;;;;12.82;7.00;;;12.80;99.90;;;;;;4986611;28;20511;-89
2022/10/17 02:00:25;;;;;;;8.38;6.40;;;12.80;99.90;;;;;;4987206;28;20050;-87
2022/10/17 02:02:58;;;;;;;12.75;6.28;;;12.80;99.90;;;;;;4974295;28;20051;-88
2022/10/17 02:05:30;;;;;;;8.32;6.10;;;12.70;99.90;;;;;;4967720;28;20043;-87
2022/10/17 02:07:55;;;;;;;10.20;6.95;;;12.70;99.90;;;;;;4967992;28;20047;-88
2022/10/17 02:10:43;;;;;;;9.68;7.20;;;12.70;99.90;;;;;;4968302;28;20046;-87
2022/10/17 02:13:36;;;;;;;8.35;6.88;;;12.70;99.90;;;;;;4952023;28;20113;-87
2022/10/17 02:16:37;;;;;;;8.98;7.15;;;12.70;99.90;;;;;;4967668;28;20046;-87
2022/10/17 02:19:18;;;;;;;8.23;7.50;;;12.70;99.90;;;;;;4987244;28;20128;-87
2022/10/17 02:22:06;;;;;;;9.48;7.28;;;12.70;99.90;;;;;;4986917;28;20046;-88
2022/10/17 02:24:37;;;;;;;9.48;7.63;;;12.70;99.90;;;;;;4986130;28;20042;-87
2022/10/17 02:27:22;;;;;;;12.52;8.05;;;12.60;99.90;;;;;;4972704;28;20141;-88
2022/10/17 02:29:55;;;;;;;11.10;8.40;;;12.70;99.90;;;;;;4986590;28;20042;-88
2022/10/17 02:32:58;;;;;;;11.52;8.40;;;12.80;99.90;;;;;;4990319;28;20480;-88
2022/10/17 02:35:29;;;;;;;9.02;8.02;;;12.60;99.90;;;;;;4968306;28;20062;-88
2022/10/17 02:37:55;;;;;;;9.85;8.48;;;12.60;99.90;;;;;;4974460;28;20051;-88
2022/10/17 02:40:23;;;;;;;11.50;9.23;;;12.70;99.90;;;;;;4996618;28;20046;-88
2022/10/17 02:42:50;;;;;;;10.13;9.10;;;12.70;99.90;;;;;;4990026;28;20050;-87
2022/10/17 02:45:16;;;;;;;10.68;9.13;;;12.70;99.90;;;;;;4990607;28;20134;-88
2022/10/17 02:48:09;;;;;;;10.43;9.07;;;12.70;99.90;;;;;;4990610;28;20046;-88
2022/10/17 02:50:45;;;;;;;9.95;8.90;;;12.70;99.90;;;;;;4974553;28;20057;-88
2022/10/17 02:53:23;;;;;;;10.98;9.85;;;12.70;99.90;;;;;;4990119;28;20389;-88
2022/10/17 02:55:59;;;;;;;14.93;9.68;;;12.70;99.90;;;;;;4957519;28;20039;-87
2022/10/17 02:58:29;;;;;;;18.38;10.02;;;12.70;99.90;;;;;;4954082;28;20062;-88
2022/10/17 03:00:56;;;;;;;10.93;9.73;;;12.70;99.90;;;;;;4954749;28;20050;-88
2022/10/17 03:03:28;;;;;;;10.43;9.32;;;12.80;99.90;;;;;;4954115;28;20053;-88
2022/10/17 03:05:54;;;;;;;9.90;8.82;;;12.70;99.90;;;;;;4970885;28;20097;-88
2022/10/17 03:08:20;;;;;;;15.55;9.90;;;12.70;99.90;;;;;;4971018;28;20047;-88
2022/10/17 03:10:46;;;;;;;10.80;9.80;;;12.70;99.90;;;;;;4983754;28;20055;-87
2022/10/17 03:13:13;;;;;;;10.77;9.60;;;12.70;99.90;;;;;;4972513;28;20464;-86
2022/10/17 03:15:38;;;;;;;12.50;10.00;;;12.70;99.90;;;;;;4970582;28;20105;-88
2022/10/17 03:18:04;;;;;;;11.45;10.23;;;12.70;99.90;;;;;;4954698;28;20043;-88
2022/10/17 03:20:30;;;;;;;12.75;10.38;;;12.70;99.90;;;;;;4970419;28;20513;-87
2022/10/17 03:22:55;;;;;;;11.98;10.70;;;12.70;99.90;;;;;;4969911;28;20098;-88
2022/10/17 03:25:21;;;;;;;12.32;10.10;;;13.00;99.90;;;;;;4973417;28;20469;-87
2022/10/17 03:27:47;;;;;;;12.18;10.05;;;12.70;99.90;;;;;;4982702;28;20054;-87
2022/10/17 03:30:12;;;;;;;13.43;10.65;;;12.70;99.90;;;;;;4970573;28;20473;-87
2022/10/17 03:32:38;;;;;;;11.65;9.82;;;13.00;99.90;;;;;;4970343;28;20493;-87
2022/10/17 03:35:04;;;;;;;12.00;10.77;;;12.70;99.90;;;;;;4970364;28;20047;-87
2022/10/17 03:37:29;;;;;;;14.23;11.07;;;12.70;99.90;;;;;;4970027;28;20535;-87
2022/10/17 03:39:55;;;;;;;13.02;11.05;;;12.70;99.90;;;;;;4969533;28;20142;-87
2022/10/17 03:42:20;;;;;;;13.02;11.35;;;12.80;99.90;;;;;;4983417;28;20054;-87
2022/10/17 03:44:46;;;;;;;13.77;10.98;;;12.80;99.90;;;;;;4986507;28;20042;-88
2022/10/17 03:47:11;;;;;;;14.70;11.32;;;13.40;99.90;;;;;;4954079;28;20046;-88
2022/10/17 03:49:37;;;;;;;15.95;11.93;;;12.80;99.90;;;;;;4969974;28;20054;-87
2022/10/17 03:52:05;;;;;;;13.93;12.15;;;12.90;99.90;;;;;;4969437;28;20095;-87
2022/10/17 03:54:31;;;;;;;17.92;11.82;;;12.80;99.90;;;;;;4985969;28;20097;-87
2022/10/17 03:56:57;;;;;;;14.20;11.30;;;12.90;99.90;;;;;;4969339;28;20055;-88
2022/10/17 03:59:22;;;;;;;13.70;12.25;;;12.90;99.90;;;;;;5001270;28;20062;-87
2022/10/17 04:01:48;;;;;;;13.55;11.77;;;12.90;99.90;;;;;;4989178;28;20055;-87
2022/10/17 04:04:13;;;;;;;15.48;11.70;;;12.90;99.90;;;;;;4988577;28;20133;-87
2022/10/17 04:06:39;;;;;;;13.15;10.40;;;12.90;99.90;;;;;;4989451;28;20057;-88
2022/10/17 04:09:05;;;;;;;14.57;11.82;;;13.10;99.90;;;;;;4989118;28;20050;-88
2022/10/17 04:11:31;;;;;;;12.73;11.18;;;12.90;99.90;;;;;;4988374;28;20054;-88
2022/10/17 04:14:00;;;;;;;12.77;11.48;;;12.90;99.90;;;;;;4955806;28;20046;-87
2022/10/17 04:16:26;;;;;;;14.70;11.07;;;13.20;99.90;;;;;;4971077;28;20030;-88
2022/10/17 04:18:57;;;;;;;14.38;11.93;;;12.90;99.90;;;;;;4973185;28;20130;-88
2022/10/17 04:21:24;;;;;;;14.18;12.63;;;12.90;99.90;;;;;;4971506;28;20129;-88
2022/10/17 04:23:58;;;;;;;15.45;12.15;;;12.80;99.90;;;;;;4988435;28;20038;-87
2022/10/17 04:26:24;;;;;;;12.95;11.10;;;12.90;99.90;;;;;;4987859;28;20053;-89
2022/10/17 04:28:50;;;;;;;18.50;12.75;;;12.90;99.90;;;;;;4971390;28;20049;-88
2022/10/17 04:31:17;;;;;;;16.35;12.88;;;12.90;99.90;;;;;;4972155;28;20046;-87
2022/10/17 04:33:45;;;;;;;15.75;12.73;;;12.90;99.90;;;;;;4988810;28;20414;-87
2022/10/17 04:36:14;;;;;;;14.82;12.43;;;12.90;99.90;;;;;;4987830;28;20054;-87
2022/10/17 04:38:40;;;;;;;14.32;12.15;;;13.00;99.90;;;;;;4988101;28;20058;-87
2022/10/17 04:41:09;;;;;;;13.13;11.13;;;12.90;99.90;;;;;;4988201;28;21731;-87
2022/10/17 04:43:36;;;;;;;15.20;12.38;;;12.90;99.90;;;;;;4987012;28;20125;-87
2022/10/17 04:46:06;;;;;;;16.05;12.48;;;12.90;99.90;;;;;;4987974;28;20101;-87
2022/10/17 04:48:32;;;;;;;13.57;12.20;;;12.90;99.90;;;;;;4988555;28;20556;-88
2022/10/17 04:51:03;;;;;;;16.75;12.82;;;12.90;99.90;;;;;;4988437;28;20057;-87
2022/10/17 04:53:37;;;;;;;17.15;12.85;;;12.90;99.90;;;;;;4972388;28;20050;-88
2022/10/17 04:56:18;;;;;;;19.50;12.57;;;12.80;99.90;;;;;;4971316;28;20552;-87
2022/10/17 04:58:44;;;;;;;15.52;13.05;;;12.90;99.90;;;;;;4982040;28;20059;-87
2022/10/17 05:01:13;;;;;;;14.10;12.05;;;13.40;99.90;;;;;;4952083;28;20086;-87
2022/10/17 05:03:39;;;;;;;16.67;13.77;;;12.90;99.90;;;;;;4965073;28;20042;-87
2022/10/17 05:06:06;;;;;;;16.13;13.35;;;12.90;99.90;;;;;;4972226;28;20101;-87
2022/10/17 05:08:32;;;;;;;17.75;12.88;;;13.00;99.90;;;;;;4987896;28;20133;-88
2022/10/17 05:10:58;;;;;;;18.17;13.68;;;13.00;99.90;;;;;;4988263;28;20124;-87
2022/10/17 05:13:23;;;;;;;13.55;12.15;;;13.10;99.90;;;;;;4982739;28;20469;-87
2022/10/17 05:15:49;;;;;;;16.05;13.27;;;13.00;99.90;;;;;;4978441;28;20046;-88
2022/10/17 05:18:15;;;;;;;16.95;13.70;;;13.70;99.90;;;;;;4976457;28;20051;-88
2022/10/17 05:20:40;;;;;;;15.30;13.15;;;13.30;99.90;;;;;;4968326;28;20054;-87
2022/10/17 05:23:06;;;;;;;16.08;13.95;;;13.80;99.90;;;;;;4952170;28;20524;-87
2022/10/17 05:25:31;;;;;;;15.68;13.07;;;13.00;99.90;;;;;;4976841;28;20042;-87
2022/10/17 05:27:57;;;;;;;15.23;13.63;;;13.00;99.90;;;;;;4987260;28;20130;-87
2022/10/17 05:30:22;;;;;;;16.67;12.80;;;13.20;99.90;;;;;;4987468;28;20491;-88
2022/10/17 05:32:52;;;;;;;18.80;13.52;;;13.00;99.90;;;;;;4986233;28;20251;-86
2022/10/17 05:35:18;;;;;;;19.98;13.95;;;13.00;99.90;;;;;;4984547;28;20047;-88
2022/10/17 05:37:43;;;;;;;14.75;13.18;;;13.00;99.90;;;;;;4986499;28;20879;-88
2022/10/17 05:40:09;;;;;;;15.60;13.00;;;13.10;99.90;;;;;;4985207;28;20051;-88
2022/10/17 05:42:35;;;;;;;16.15;13.27;;;13.10;99.90;;;;;;5001113;28;20062;-88
2022/10/17 05:45:02;;;;;;;20.20;13.48;;;13.10;99.90;;;;;;4975172;28;20069;-88
2022/10/17 05:47:28;;;;;;;18.45;13.65;;;13.30;99.90;;;;;;4977871;28;20405;-87
2022/10/17 05:49:53;;;;;;;17.48;13.68;;;13.10;99.90;;;;;;4999246;28;20039;-88
2022/10/17 05:52:19;;;;;;;16.67;14.77;;;13.20;99.90;;;;;;4996744;28;20047;-87
2022/10/17 05:54:44;;;;;;;18.45;13.60;;;13.30;99.90;;;;;;4988878;28;20061;-89
2022/10/17 05:57:10;;;;;;;15.45;13.50;;;13.30;99.90;;;;;;4968159;28;20119;-88
2022/10/17 05:59:36;;;;;;;16.85;13.52;;;13.40;99.90;;;;;;4956654;28;20418;-88
2022/10/17 06:02:01;;;;;;;17.98;14.27;;;13.50;99.90;;;;;;4978232;28;20047;-89
2022/10/17 06:04:27;;;;;;;21.08;13.40;;;13.60;99.90;;;;;;5005393;28;20050;-88
2022/10/17 06:06:55;;;;;;;17.80;13.57;;;13.60;99.90;;;;;;5009233;28;20047;-89
2022/10/17 06:09:21;;;;;;;16.25;12.52;;;13.60;99.90;;;;;;4992260;28;20035;-88
2022/10/17 06:11:46;;;;;;;19.30;14.05;;;13.70;99.90;;;;;;4989594;28;20058;-89
2022/10/17 06:14:12;;;;;;;19.15;13.32;;;13.70;99.90;;;;;;4979247;28;20046;-87
2022/10/17 06:16:37;;;;;;;19.05;12.93;;;13.70;99.90;;;;;;4988382;28;20409;-87
2022/10/17 06:19:03;;;;;;;20.17;13.95;;;13.80;99.90;;;;;;4993846;28;20121;-88
2022/10/17 06:21:28;;;;;;;17.88;13.65;;;13.80;99.90;;;;;;5006906;28;20048;-88
2022/10/17 06:23:54;;;;;;;16.20;12.23;;;13.90;99.90;;;;;;4986539;28;20138;-87
2022/10/17 06:26:20;;;;;;;16.35;12.77;;;13.90;99.90;;;;;;4977700;28;20042;-87
2022/10/17 06:28:45;;;;;;;15.15;12.45;;;14.00;99.90;;;;;;4990655;28;20050;-88
2022/10/17 06:31:13;;;;;;;19.20;13.23;;;14.00;99.90;;;;;;4990821;28;20047;-87
2022/10/17 06:33:39;;;;;;;18.85;12.75;;;14.10;99.90;;;;;;4984876;28;20058;-87
2022/10/17 06:36:06;;;;;;;21.48;13.10;;;14.30;99.90;;;;;;4978181;28;20057;-87
2022/10/17 06:38:36;;;;;;;16.15;12.82;;;14.20;99.90;;;;;;4987827;28;20129;-88
2022/10/17 06:41:09;;;;;;;18.67;12.55;;;14.20;99.90;;;;;;4978446;28;20046;-89
2022/10/17 06:43:39;;;;;;;16.58;13.30;;;14.30;99.90;;;;;;4965129;28;20166;-87
2022/10/17 06:46:05;;;;;;;16.17;13.18;;;14.30;99.90;;;;;;4992201;28;20158;-86
2022/10/17 06:48:32;;;;;;;19.23;13.07;;;14.40;99.90;;;;;;4975336;28;20381;-87
2022/10/17 06:50:59;;;;;;;18.08;12.23;;;14.50;99.90;;;;;;5005320;28;20125;-86
2022/10/17 06:53:30;;;;;;;13.20;11.57;;;14.80;99.90;;;;;;4991407;28;20046;-87
2022/10/17 06:56:00;;;;;;;17.02;11.75;;;14.50;99.90;;;;;;4991027;28;20522;-86
2022/10/17 06:58:27;;;;;;;17.95;12.25;;;14.60;99.90;;;;;;4975461;28;20063;-86
2022/10/17 07:01:04;;;;;;;13.18;11.75;;;14.60;99.90;;;;;;4986959;28;20112;-87
2022/10/17 07:03:30;;;;;;;15.70;11.88;;;14.70;99.90;;;;;;4978616;28;20050;-86
2022/10/17 07:05:56;;;;;;;15.77;11.75;;;14.70;99.90;;;;;;4984142;28;20441;-87
2022/10/17 07:08:23;;;;;;;14.77;11.68;;;14.70;99.90;;;;;;4991051;28;20140;-87
2022/10/17 07:10:48;;;;;;;15.30;12.13;;;15.50;99.90;;;;;;4990800;28;20043;-87
2022/10/17 07:13:14;;;;;;;18.42;12.13;;;14.70;99.90;;;;;;4970461;28;20057;-88
2022/10/17 07:15:40;;;;;;;16.13;11.93;;;14.70;99.90;;;;;;4955543;28;20049;-88
2022/10/17 07:18:06;;;;;;;16.20;11.75;;;14.80;99.90;;;;;;4955587;28;20046;-88
2022/10/17 07:20:32;;;;;;;14.20;11.75;;;14.90;99.90;;;;;;4971026;28;20051;-88
2022/10/17 07:22:58;;;;;;;14.40;10.68;;;15.30;99.90;;;;;;4971153;28;20389;-91
2022/10/17 07:25:24;;;;;;;14.52;10.70;;;15.00;99.90;;;;;;4971427;28;20046;-92
2022/10/17 07:27:50;;;;;;;13.63;11.07;;;15.00;99.90;;;;;;4971540;28;20054;-90
2022/10/17 07:30:17;;;;;;;16.58;11.65;;;15.10;99.90;;;;;;4955877;28;20088;-91
2022/10/17 07:32:43;;;;;;;12.52;10.10;;;15.10;99.90;;;;;;4956186;28;20130;-89
2022/10/17 07:35:09;;;;;;;12.88;9.73;;;15.20;99.90;;;;;;4971553;28;20069;-90
2022/10/17 07:37:36;;;;;;;11.05;9.95;;;15.20;99.90;;;;;;4971895;28;20038;-90
2022/10/17 07:40:02;;;;;;;14.80;10.98;;;15.30;99.90;;;;;;4972013;28;20043;-90
2022/10/17 07:42:27;;;;;;;14.27;11.05;;;15.40;99.90;;;;;;4971195;28;20055;-89
2022/10/17 07:44:53;;;;;;;11.95;10.07;;;15.60;99.90;;;;;;4972158;28;20452;-90
2022/10/17 07:47:19;;;;;;;12.45;10.20;;;15.60;99.90;;;;;;4971066;28;20057;-89
2022/10/17 07:49:45;;;;;;;14.50;10.95;;;15.60;99.90;;;;;;4955811;28;20135;-90
2022/10/17 07:52:12;;;;;;;12.85;9.90;;;16.10;99.90;;;;;;4971078;28;20129;-89
2022/10/17 07:54:38;;;;;;;14.43;9.93;;;15.80;99.90;;;;;;4971328;28;20082;-91
2022/10/17 07:57:04;;;;;;;12.32;9.48;;;15.80;99.90;;;;;;4954444;28;20078;-90
2022/10/17 07:59:29;;;;;;;10.95;9.85;;;15.80;99.90;;;;;;4969715;28;20059;-85
2022/10/17 08:01:55;;;;;;;11.70;9.65;;;15.70;99.90;;;;;;4970515;28;20046;-91
2022/10/17 08:04:21;;;;;;;10.50;9.48;;;15.90;99.90;;;;;;4971190;28;20145;-88
2022/10/17 08:06:47;;;;;;;12.77;9.63;;;15.90;99.90;;;;;;4954639;28;20055;-86
2022/10/17 08:09:12;;;;;;;13.68;9.45;;;16.70;99.90;;;;;;4954246;28;20141;-88
2022/10/17 08:11:38;;;;;;;12.68;8.93;;;17.20;99.90;;;;;;4969800;28;20082;-88
2022/10/17 08:14:04;;;;;;;14.05;9.85;;;16.20;99.90;;;;;;4954420;28;20480;-89
2022/10/17 08:16:29;;;;;;;13.93;9.43;;;16.10;99.90;;;;;;4954126;28;20293;-88
2022/10/17 08:18:55;;;;;;;11.75;8.93;;;16.20;99.90;;;;;;4984799;28;20046;-87
2022/10/17 08:21:21;;;;;;;11.35;9.00;;;16.00;99.90;;;;;;4970041;28;20047;-88
2022/10/17 08:23:46;;;;;;;9.65;8.68;;;17.00;99.90;;;;;;4970189;28;20133;-89
2022/10/17 08:26:16;;;;;;;11.15;8.65;;;17.90;99.90;;;;;;4970022;28;20104;-89
2022/10/17 08:28:41;;;;;;;11.20;8.32;;;16.10;99.90;;;;;;4970043;28;20047;-88
2022/10/17 08:31:10;;;;;;;10.05;8.57;;;16.70;99.90;;;;;;4967346;28;20053;-89
2022/10/17 08:33:36;;;;;;;8.75;7.85;;;16.10;99.90;;;;;;4987970;28;20097;-87
2022/10/17 08:36:03;;;;;;;12.35;8.02;;;16.00;99.90;;;;;;4968718;28;20493;-88
2022/10/17 08:38:30;;;;;;;11.35;9.23;;;16.70;99.90;;;;;;4983278;28;20122;-89
2022/10/17 08:41:06;;;;;;;14.60;9.35;;;17.00;99.90;;;;;;4973236;28;20051;-87
2022/10/17 08:44:04;;;;;;;11.05;9.00;;;16.10;99.90;;;;;;4996582;28;20054;-90
2022/10/17 08:46:35;;;;;;;18.13;11.40;;;16.50;99.90;;;;;;4967091;28;20050;-87
2022/10/17 08:49:02;;;;;;;15.63;10.70;;;16.70;99.90;;;;;;4968583;28;20072;-88
2022/10/17 08:51:32;;;;;;;15.23;10.30;;;15.20;99.90;;;;;;4989093;28;20046;-87
2022/10/17 08:54:21;;;;;;;10.65;9.18;;;16.20;99.90;;;;;;4973279;28;20843;-88
2022/10/17 08:56:49;;;;;;;10.82;8.48;;;16.60;99.90;;;;;;4988993;28;20504;-89
2022/10/17 08:59:27;;;;;;;10.55;8.25;;;16.50;99.90;;;;;;4988427;28;20160;-87
2022/10/17 09:02:19;;;;;;;11.57;8.35;;;17.00;99.90;;;;;;4972845;28;20113;-86
2022/10/17 09:05:23;;;;;;;11.75;8.07;;;16.70;99.90;;;;;;4962333;28;20051;-88
2022/10/17 09:07:52;;;;;;;7.90;6.95;;;16.80;99.90;;;;;;4973007;28;20069;-86
2022/10/17 09:10:25;;;;;;;8.30;7.50;;;16.10;99.90;;;;;;4980959;28;20501;-86
2022/10/17 09:13:18;;;;;;;8.63;7.72;;;16.30;99.90;;;;;;4983267;28;20053;-88
2022/10/17 09:15:49;;;;;;;13.00;7.45;;;16.70;99.90;;;;;;4965846;28;20066;-85
2022/10/17 09:18:22;;;;;;;8.25;7.45;;;17.10;99.90;;;;;;4969803;28;20133;-87
2022/10/17 09:21:13;;;;;;;10.32;7.93;;;17.10;99.90;;;;;;4970207;28;20607;-86
2022/10/17 09:23:50;;;;;;;8.50;7.38;;;16.20;99.90;;;;;;4956888;28;20062;-89
2022/10/17 09:26:16;;;;;;;9.40;7.57;;;16.70;99.90;;;;;;4953384;28;20519;-88
2022/10/17 09:28:42;;;;;;;13.63;7.82;;;17.30;99.90;;;;;;4957347;28;20126;-88
2022/10/17 09:31:41;;;;;;;8.50;7.65;;;17.20;99.90;;;;;;4955085;28;20054;-89
2022/10/17 09:34:09;;;;;;;10.82;6.95;;;17.80;99.90;;;;;;4971168;28;20047;-90
2022/10/17 09:36:38;;;;;;;10.30;7.20;;;18.20;99.90;;;;;;4971364;28;20046;-91
2022/10/17 09:39:11;;;;;;;12.20;7.90;;;16.90;99.90;;;;;;4971771;28;20141;-88
2022/10/17 09:42:03;;;;;;;13.32;7.97;;;16.90;99.90;;;;;;4972093;28;20177;-88
2022/10/17 09:44:32;;;;;;;7.68;6.82;;;16.90;99.90;;;;;;4969901;28;20054;-92
2022/10/17 09:47:04;;;;;;;9.32;7.85;;;16.90;99.90;;;;;;4986089;28;20043;-86
2022/10/17 09:49:38;;;;;;;8.55;7.63;;;16.90;99.90;;;;;;4972603;28;20046;-84
2022/10/17 09:52:10;;;;;;;9.48;7.30;;;16.90;99.90;;;;;;4989763;28;20050;-88
2022/10/17 09:54:42;;;;;;;;;;;16.90;99.90;;;;;;4964562;28;20046;-89
2022/10/17 09:57:11;;;;;;;11.20;8.02;;;16.80;99.90;;;;;;4989922;28;19921;-89
2022/10/17 09:59:40;;;;;;;12.55;8.27;;;16.80;99.90;;;;;;4990482;28;20097;-90
2022/10/17 10:02:16;;;;;;;10.07;7.97;;;16.80;99.90;;;;;;5006011;28;20051;-90
2022/10/17 10:05:05;;;;;;;9.75;8.20;;;16.70;99.90;;;;;;4973702;28;20069;-89
2022/10/17 10:07:34;;;;;;;11.57;8.90;;;16.70;99.90;;;;;;4972473;28;20038;-88
2022/10/17 10:10:02;;;;;;;10.48;8.30;;;16.90;99.90;;;;;;4970811;28;20057;-90
2022/10/17 10:12:36;;;;;;;13.85;8.82;;;16.60;99.90;;;;;;4952420;28;20078;-88
2022/10/17 10:15:31;;;;;;;9.88;8.63;;;16.60;99.90;;;;;;4969903;28;20047;-90
2022/10/17 10:17:56;;;;;;;10.45;9.07;;;16.60;99.90;;;;;;4968288;28;20125;-87
2022/10/17 10:20:32;;;;;;;11.90;9.00;;;16.70;99.90;;;;;;4977840;28;20126;-89
2022/10/17 10:23:07;;;;;;;15.05;9.18;;;16.50;99.90;;;;;;4997026;28;20053;-89
2022/10/17 10:25:34;;;;;;;9.70;8.68;;;16.50;99.90;;;;;;4985788;28;20042;-88
2022/10/17 10:28:00;;;;;;;11.10;8.68;;;16.50;99.90;;;;;;4970845;28;20086;-86
2022/10/17 10:30:29;;;;;;;12.40;9.18;;;16.50;99.90;;;;;;4986976;28;20057;-87
2022/10/17 10:32:57;;;;;;;11.68;9.52;;;16.90;99.90;;;;;;4985756;28;20046;-86
2022/10/17 10:35:33;;;;;;;11.07;9.00;;;16.40;99.90;;;;;;4972080;28;20046;-86
2022/10/17 10:38:01;;;;;;;12.90;9.07;;;16.40;99.90;;;;;;4969374;28;20043;-87
2022/10/17 10:40:33;;;;;;;12.77;9.88;;;17.30;99.90;;;;;;4978639;28;20071;-87
2022/10/17 10:43:00;;;;;;;15.45;10.10;;;16.40;99.90;;;;;;4976840;28;20056;-88
2022/10/17 10:45:40;;;;;;;13.93;10.95;;;16.40;99.90;;;;;;4972340;28;20034;-87
2022/10/17 10:48:30;;;;;;;13.00;10.10;;;16.30;99.90;;;;;;4984789;28;20077;-89
2022/10/17 10:50:59;;;;;;;14.00;10.45;;;16.30;99.90;;;;;;4992033;28;20112;-88
2022/10/17 10:53:50;;;;;;;14.30;9.70;;;16.30;99.90;;;;;;4990344;28;20153;-89
2022/10/17 10:56:37;;;;;;;13.70;10.13;;;16.30;99.90;;;;;;4974409;28;20133;-87
2022/10/17 10:59:17;;;;;;;13.77;9.63;;;16.30;99.90;;;;;;4956030;28;20091;-88
2022/10/17 11:02:11;;;;;;;13.50;9.45;;;16.30;99.90;;;;;;4972349;28;20088;-88
2022/10/17 11:04:51;;;;;;;19.67;10.90;;;16.40;99.90;;;;;;4974483;28;20382;-88
2022/10/17 11:07:28;;;;;;;11.95;9.35;;;16.30;99.90;;;;;;5005584;28;20113;-87
2022/10/17 11:10:13;;;;;;;15.98;12.65;;;16.30;99.90;;;;;;4990891;28;20050;-89
2022/10/17 11:13:02;;;;;;;13.90;11.55;;;16.30;99.90;;;;;;4988667;28;20046;-88
2022/10/17 11:15:43;;;;;;;15.25;11.13;;;16.40;99.90;;;;;;4972581;28;20078;-88
2022/10/17 11:18:37;;;;;;;15.18;11.75;;;15.70;99.90;;;;;;4977938;28;20049;-87
2022/10/17 11:21:15;;;;;;;15.25;11.85;;;16.40;99.90;;;;;;4956395;28;20045;-87
2022/10/17 11:23:55;;;;;;;14.32;12.07;;;16.60;99.90;;;;;;4979324;28;20054;-89
2022/10/17 11:26:36;;;;;;;15.85;12.45;;;15.80;99.90;;;;;;4991232;28;20417;-89
2022/10/17 11:29:06;;;;;;;22.35;14.52;;;15.90;99.90;;;;;;4973435;28;20050;-90
2022/10/17 11:31:38;;;;;;;24.10;17.33;;;16.20;99.90;;;;;;4990614;28;20042;-88
2022/10/17 11:34:34;;;;;;;21.30;14.40;;;16.70;99.90;;;;;;4991784;28;20046;-89
2022/10/17 11:37:25;;;;;;;17.25;13.40;;;16.00;99.90;;;;;;4990406;28;20096;-89
2022/10/17 11:39:58;;;;;;;18.27;11.85;;;16.40;99.90;;;;;;4990420;28;20046;-87
2022/10/17 11:42:39;;;;;;;15.68;11.73;;;16.40;99.90;;;;;;4988191;28;20055;-89
2022/10/17 11:45:12;;;;;;;14.60;10.85;;;16.40;99.90;;;;;;4987647;28;20409;-87
2022/10/17 11:47:44;;;;;;;14.15;10.93;;;16.30;99.90;;;;;;4974307;28;20082;-87
2022/10/17 11:50:35;;;;;;;12.85;10.75;;;16.20;99.90;;;;;;4969077;28;20046;-87
2022/10/17 11:53:23;;;;;;;18.05;11.95;;;16.40;99.90;;;;;;4990377;28;20046;-87
2022/10/17 11:55:51;;;;;;;15.60;11.60;;;16.00;99.90;;;;;;4990412;28;20042;-87
2022/10/17 11:58:41;;;;;;;14.15;10.80;;;16.80;99.90;;;;;;4989138;28;20059;-87
2022/10/17 12:01:32;;;;;;;14.18;10.90;;;16.40;99.90;;;;;;4989639;28;20200;-87
2022/10/17 12:04:19;;;;;;;10.52;9.30;;;16.40;99.90;;;;;;4985713;28;20417;-87
2022/10/17 12:06:54;;;;;;;12.20;10.07;;;16.40;99.90;;;;;;4978105;28;20133;-87
2022/10/17 12:09:42;;;;;;;12.95;10.63;;;16.50;99.90;;;;;;4975909;28;20042;-87
2022/10/17 12:12:07;;;;;;;11.65;10.43;;;16.50;99.90;;;;;;4973462;28;20093;-87
2022/10/17 12:14:41;;;;;;;12.20;10.02;;;15.90;99.90;;;;;;4989927;28;20050;-87
2022/10/17 12:17:22;;;;;;;12.68;8.93;;;16.10;99.90;;;;;;4973058;28;20116;-86
2022/10/17 12:19:48;;;;;;;12.98;10.63;;;16.50;99.90;;;;;;4990454;28;20048;-87
2022/10/17 12:22:20;;;;;;;12.32;10.52;;;16.10;99.90;;;;;;4989730;28;20050;-85
2022/10/17 12:25:00;;;;;;;12.60;11.13;;;17.10;99.90;;;;;;4990140;28;20046;-87
2022/10/17 12:27:37;;;;;;;12.27;10.43;;;17.40;99.90;;;;;;4989400;28;20058;-88
2022/10/17 12:30:13;;;;;;;11.45;10.27;;;16.60;99.90;;;;;;4972988;28;20468;-87
2022/10/17 12:32:54;;;;;;;12.18;9.77;;;17.00;99.90;;;;;;4970185;28;20050;-87
2022/10/17 12:35:22;;;;;;;10.75;9.57;;;17.00;99.90;;;;;;4954703;28;20125;-87
2022/10/17 12:37:48;;;;;;;10.13;8.02;;;17.00;99.90;;;;;;4970606;28;20046;-87
2022/10/17 12:40:35;;;;;;;8.98;8.07;;;17.50;99.90;;;;;;4970252;28;20046;-88
2022/10/17 12:43:13;;;;;;;10.30;8.25;;;17.00;99.90;;;;;;4970031;28;20137;-86
2022/10/17 12:45:46;;;;;;;12.00;7.78;;;18.00;99.90;;;;;;4974610;28;20039;-86
2022/10/17 12:48:33;;;;;;;10.93;8.70;;;17.00;99.90;;;;;;5002594;28;20125;-87
2022/10/17 12:51:11;;;;;;;8.40;7.57;;;17.30;99.90;;;;;;4959311;28;20050;-87
2022/10/17 12:53:51;;;;;;;9.68;8.32;;;17.00;99.90;;;;;;5001772;28;20050;-87
2022/10/17 12:56:20;;;;;;;8.38;7.57;;;17.00;99.90;;;;;;4977099;28;20119;-87
2022/10/17 12:58:49;;;;;;;8.38;7.53;;;17.60;99.90;;;;;;4965819;28;20078;-87